Time;durP1;ratioP1;P1;durP2;ratioP2;P2;SDS_P1;SDS_P2;PMS_P1;PMS_P2;Temp;Humidity;BMP_temperature;BMP_pressure;BME280_temperature;BME280_humidity;BME280_pressure;Samples;Min_cycle;Max_cycle;Signal;HPM_P1;HPM_P2
2021/05/01 00:00:14;;;;;;;24.90;12.77;;;7.70;84.20;;;;;;4962397;28;20027;-76
2021/05/01 00:02:39;;;;;;;24.05;13.45;;;7.70;84.20;;;;;;4962364;28;20091;-76
2021/05/01 00:05:06;;;;;;;23.13;12.98;;;7.70;83.70;;;;;;4975865;28;20023;-75
2021/05/01 00:07:31;;;;;;;26.25;14.25;;;7.80;83.70;;;;;;4964433;28;20057;-76
2021/05/01 00:09:57;;;;;;;23.42;12.95;;;7.70;84.60;;;;;;4960465;28;20537;-75
2021/05/01 00:12:23;;;;;;;23.40;12.93;;;7.70;84.40;;;;;;4964479;28;20027;-75
2021/05/01 00:14:48;;;;;;;21.23;11.70;;;7.70;84.00;;;;;;4964299;28;20107;-75
2021/05/01 00:17:14;;;;;;;24.05;12.40;;;7.70;83.50;;;;;;4980632;28;20503;-75
2021/05/01 00:19:39;;;;;;;25.30;13.40;;;7.70;83.90;;;;;;4967015;28;20504;-75
2021/05/01 00:22:05;;;;;;;22.45;12.55;;;7.80;83.20;;;;;;4959108;28;20035;-76
2021/05/01 00:24:31;;;;;;;22.13;12.52;;;7.80;83.50;;;;;;4961114;28;20041;-75
2021/05/01 00:26:56;;;;;;;25.05;12.88;;;7.80;83.10;;;;;;4964133;28;20066;-76
2021/05/01 00:29:22;;;;;;;23.85;11.55;;;7.80;82.90;;;;;;4958512;28;20042;-75
2021/05/01 00:31:48;;;;;;;23.65;12.73;;;7.80;83.20;;;;;;4978083;28;20402;-74
2021/05/01 00:34:14;;;;;;;23.00;13.35;;;7.80;83.10;;;;;;4963084;28;20041;-75
2021/05/01 00:36:40;;;;;;;21.85;12.15;;;7.70;84.70;;;;;;4960256;28;20031;-76
2021/05/01 00:39:06;;;;;;;25.63;12.88;;;7.70;84.00;;;;;;4959463;28;20518;-76
2021/05/01 00:41:32;;;;;;;21.20;12.38;;;7.70;84.00;;;;;;4961701;28;20038;-75
2021/05/01 00:43:58;;;;;;;23.08;12.43;;;7.70;84.10;;;;;;4960259;28;20651;-75
2021/05/01 00:46:24;;;;;;;22.55;12.02;;;7.70;83.60;;;;;;4959416;28;20026;-75
2021/05/01 00:48:49;;;;;;;21.40;12.05;;;7.70;84.20;;;;;;4962995;28;20042;-76
2021/05/01 00:51:15;;;;;;;23.20;12.10;;;7.60;84.60;;;;;;4961224;28;20030;-76
2021/05/01 00:53:41;;;;;;;22.98;12.23;;;7.60;84.10;;;;;;4960964;28;20042;-76
2021/05/01 00:56:07;;;;;;;21.67;11.57;;;7.60;84.60;;;;;;4960542;28;20101;-76
2021/05/01 00:58:33;;;;;;;21.40;12.45;;;7.60;84.10;;;;;;4959643;28;20026;-75
2021/05/01 01:03:33;;;;;;;21.15;11.13;;;7.70;84.00;;;;;;4961417;28;20030;-75
2021/05/01 01:05:59;;;;;;;22.60;11.75;;;7.70;83.90;;;;;;4961247;28;20030;-75
2021/05/01 01:08:25;;;;;;;22.42;11.10;;;7.70;83.60;;;;;;4960337;28;20622;-75
2021/05/01 01:10:52;;;;;;;19.02;10.32;;;7.60;84.30;;;;;;4963744;28;20027;-75
2021/05/01 01:13:18;;;;;;;19.80;11.20;;;7.60;84.50;;;;;;4959664;28;20070;-76
2021/05/01 01:15:43;;;;;;;21.80;12.23;;;7.60;84.40;;;;;;4977084;28;20031;-76
2021/05/01 01:18:09;;;;;;;20.45;11.98;;;7.50;84.60;;;;;;4963026;28;20379;-76
2021/05/01 01:20:34;;;;;;;20.63;11.70;;;7.50;84.80;;;;;;4963711;28;20065;-76
2021/05/01 01:23:00;;;;;;;20.45;11.05;;;7.50;84.60;;;;;;4960087;28;20034;-75
2021/05/01 01:25:26;;;;;;;20.70;12.32;;;7.60;85.40;;;;;;4963499;28;20035;-75
2021/05/01 01:27:52;;;;;;;20.48;11.90;;;7.60;85.10;;;;;;4961217;28;20034;-76
2021/05/01 01:30:25;;;;;;;23.20;11.70;;;7.60;85.60;;;;;;4963724;28;20045;-76
2021/05/01 01:32:51;;;;;;;21.50;11.80;;;7.60;86.50;;;;;;4959986;28;20557;-75
2021/05/01 01:35:17;;;;;;;17.95;9.40;;;7.60;85.20;;;;;;4952231;28;20078;-75
2021/05/01 01:37:44;;;;;;;16.52;9.50;;;7.50;85.50;;;;;;4963221;28;20129;-76
2021/05/01 01:40:12;;;;;;;16.85;10.60;;;7.40;85.40;;;;;;4968710;28;21429;-75
2021/05/01 01:42:40;;;;;;;19.88;11.43;;;7.40;85.00;;;;;;4958434;28;20039;-76
2021/05/01 01:45:07;;;;;;;20.67;10.80;;;7.40;84.90;;;;;;4959461;28;20026;-76
2021/05/01 01:47:33;;;;;;;20.52;11.50;;;7.30;85.60;;;;;;4959299;28;20043;-76
2021/05/01 01:49:58;;;;;;;20.75;11.32;;;7.20;86.50;;;;;;4958845;28;20398;-76
2021/05/01 01:52:24;;;;;;;21.60;12.43;;;7.20;86.50;;;;;;4961941;28;20034;-75
2021/05/01 01:54:50;;;;;;;21.98;12.07;;;7.10;87.00;;;;;;4958366;28;20039;-75
2021/05/01 01:57:16;;;;;;;22.35;11.75;;;7.20;87.00;;;;;;4958098;28;20031;-76
2021/05/01 01:59:43;;;;;;;22.25;11.52;;;7.10;86.90;;;;;;4957745;28;20045;-75
2021/05/01 02:02:09;;;;;;;22.15;11.90;;;7.10;86.70;;;;;;4956178;28;20039;-76
2021/05/01 02:04:35;;;;;;;19.13;11.02;;;7.20;86.50;;;;;;4956476;28;20027;-75
2021/05/01 02:07:01;;;;;;;22.80;11.93;;;7.30;86.20;;;;;;4971069;28;20100;-75
2021/05/01 02:09:26;;;;;;;19.13;10.55;;;7.40;85.90;;;;;;4960053;28;20201;-76
2021/05/01 02:11:52;;;;;;;20.45;11.52;;;7.40;85.90;;;;;;4955259;28;20041;-76
2021/05/01 02:14:18;;;;;;;19.55;10.48;;;7.40;85.40;;;;;;4957611;28;20090;-76
2021/05/01 02:16:44;;;;;;;18.92;11.02;;;7.50;85.10;;;;;;4957460;28;20114;-76
2021/05/01 02:19:10;;;;;;;21.15;11.52;;;7.40;86.00;;;;;;4957675;28;20041;-76
2021/05/01 02:21:35;;;;;;;19.50;10.85;;;7.30;86.20;;;;;;4954018;28;20042;-76
2021/05/01 02:24:01;;;;;;;21.13;11.32;;;7.30;85.60;;;;;;4958720;28;20038;-75
2021/05/01 02:26:27;;;;;;;21.02;10.63;;;7.30;85.50;;;;;;4954630;28;21002;-75
2021/05/01 02:28:53;;;;;;;18.70;10.95;;;7.40;85.40;;;;;;4953957;28;20106;-76
2021/05/01 02:31:19;;;;;;;18.70;9.85;;;7.40;85.80;;;;;;4956877;28;20147;-76
2021/05/01 02:33:45;;;;;;;22.58;11.27;;;7.40;85.80;;;;;;4960816;28;20054;-75
2021/05/01 02:36:11;;;;;;;20.42;11.73;;;7.50;85.80;;;;;;4958371;28;20034;-76
2021/05/01 02:38:37;;;;;;;21.40;11.80;;;7.40;85.90;;;;;;4959160;28;20494;-76
2021/05/01 02:41:02;;;;;;;21.35;11.43;;;7.30;85.70;;;;;;4959320;28;20027;-75
2021/05/01 02:43:28;;;;;;;23.08;11.65;;;7.30;85.60;;;;;;4958856;28;20029;-76
2021/05/01 02:45:54;;;;;;;19.73;11.73;;;7.30;86.30;;;;;;4958078;28;20483;-76
2021/05/01 02:48:19;;;;;;;22.42;11.93;;;7.30;86.40;;;;;;4957521;28;20034;-74
2021/05/01 02:50:45;;;;;;;20.38;11.43;;;7.40;86.20;;;;;;4959045;28;20446;-76
2021/05/01 02:53:11;;;;;;;21.92;11.68;;;7.40;86.10;;;;;;4959830;28;20027;-76
2021/05/01 02:55:37;;;;;;;23.83;13.07;;;7.40;86.40;;;;;;4959674;28;20081;-76
2021/05/01 02:58:02;;;;;;;23.30;12.30;;;7.40;86.30;;;;;;4959366;28;20093;-76
2021/05/01 03:00:28;;;;;;;20.50;11.50;;;7.40;86.20;;;;;;4958604;28;20030;-75
2021/05/01 03:02:55;;;;;;;21.05;12.02;;;7.40;86.30;;;;;;4959536;28;20038;-76
2021/05/01 03:05:22;;;;;;;21.30;11.45;;;7.40;86.40;;;;;;4961111;28;20109;-76
2021/05/01 03:07:48;;;;;;;20.00;10.83;;;7.50;85.70;;;;;;4960453;28;20035;-76
2021/05/01 03:10:25;;;;;;;18.65;10.27;;;7.50;86.10;;;;;;4964067;28;20065;-76
2021/05/01 03:12:52;;;;;;;19.30;10.60;;;7.50;85.70;;;;;;4960619;28;20544;-76
2021/05/01 03:15:19;;;;;;;22.65;11.90;;;7.50;86.60;;;;;;4963756;28;20030;-76
2021/05/01 03:17:45;;;;;;;20.65;11.00;;;7.40;86.10;;;;;;4959162;28;20039;-76
2021/05/01 03:20:13;;;;;;;20.25;11.55;;;7.50;86.40;;;;;;4956559;28;20088;-75
2021/05/01 03:22:38;;;;;;;21.00;11.38;;;7.40;87.00;;;;;;4962690;28;20030;-76
2021/05/01 03:25:06;;;;;;;21.77;11.13;;;7.40;86.20;;;;;;4957243;28;20030;-76
2021/05/01 03:27:32;;;;;;;20.43;10.73;;;7.40;86.20;;;;;;4957613;28;20101;-76
2021/05/01 03:29:57;;;;;;;23.60;11.95;;;7.40;86.00;;;;;;4960934;28;20027;-75
2021/05/01 03:32:23;;;;;;;18.27;10.77;;;7.40;86.00;;;;;;4955381;28;20046;-75
2021/05/01 03:34:49;;;;;;;21.58;11.88;;;7.40;86.30;;;;;;4961803;28;20035;-76
2021/05/01 03:37:15;;;;;;;21.35;11.90;;;7.30;86.80;;;;;;4961928;28;20027;-75
2021/05/01 03:39:41;;;;;;;23.05;12.23;;;7.30;87.00;;;;;;4964700;28;20038;-76
2021/05/01 03:42:07;;;;;;;24.70;12.40;;;7.30;87.00;;;;;;4958341;28;20109;-75
2021/05/01 03:44:33;;;;;;;22.73;12.85;;;7.20;87.20;;;;;;4961764;28;20537;-76
2021/05/01 03:46:58;;;;;;;22.92;13.05;;;7.20;88.00;;;;;;4962917;28;20030;-75
2021/05/01 03:49:24;;;;;;;24.00;13.73;;;7.10;87.80;;;;;;4963569;28;20115;-75
2021/05/01 03:51:50;;;;;;;23.42;12.80;;;7.20;87.70;;;;;;4963291;28;20422;-75
2021/05/01 03:54:16;;;;;;;25.00;13.82;;;7.20;87.50;;;;;;4958891;28;20023;-75
2021/05/01 03:56:42;;;;;;;27.00;13.88;;;7.20;87.50;;;;;;4959719;28;20027;-76
2021/05/01 03:59:07;;;;;;;24.42;13.20;;;7.20;87.60;;;;;;4963552;28;20045;-76
2021/05/01 04:01:33;;;;;;;24.27;13.77;;;7.20;87.40;;;;;;4958619;28;20066;-76
2021/05/01 04:03:59;;;;;;;28.88;13.80;;;7.20;87.60;;;;;;4962784;28;20038;-75
2021/05/01 04:06:24;;;;;;;23.45;11.98;;;7.20;87.90;;;;;;4962861;28;20092;-75
2021/05/01 04:08:50;;;;;;;25.33;12.05;;;7.20;88.00;;;;;;4961728;28;20027;-76
2021/05/01 04:11:16;;;;;;;25.88;12.88;;;7.20;88.00;;;;;;4960069;28;20128;-75
2021/05/01 04:13:50;;;;;;;26.58;14.35;;;7.10;88.50;;;;;;4965117;28;20022;-75
2021/05/01 04:16:17;;;;;;;26.05;13.27;;;7.00;88.50;;;;;;4960030;28;20057;-75
2021/05/01 04:18:45;;;;;;;28.73;14.35;;;7.10;88.90;;;;;;4964638;28;20110;-75
2021/05/01 04:21:10;;;;;;;30.20;14.95;;;7.00;88.80;;;;;;4955529;28;20038;-75
2021/05/01 04:23:36;;;;;;;29.73;14.50;;;7.00;89.20;;;;;;4963577;28;20459;-76
2021/05/01 04:26:02;;;;;;;30.08;14.38;;;7.00;88.80;;;;;;4962482;28;20207;-75
2021/05/01 04:28:28;;;;;;;25.80;13.75;;;7.00;89.20;;;;;;4958544;28;20031;-75
2021/05/01 04:30:55;;;;;;;26.08;13.85;;;7.00;90.10;;;;;;4959666;28;20027;-75
2021/05/01 04:33:21;;;;;;;29.38;14.35;;;7.00;89.50;;;;;;4958689;28;20038;-75
2021/05/01 04:35:46;;;;;;;26.65;13.88;;;7.00;89.70;;;;;;4962853;28;20417;-75
2021/05/01 04:38:12;;;;;;;26.92;14.73;;;7.00;89.80;;;;;;4958618;28;20035;-76
2021/05/01 04:40:38;;;;;;;27.65;14.25;;;7.00;89.70;;;;;;4963653;28;20034;-75
2021/05/01 04:43:06;;;;;;;25.63;13.90;;;7.10;89.60;;;;;;4960873;28;20026;-75
2021/05/01 04:45:31;;;;;;;27.73;13.07;;;7.10;89.60;;;;;;4956063;28;20031;-76
2021/05/01 04:47:57;;;;;;;25.77;14.52;;;7.10;89.50;;;;;;4963931;28;20281;-75
2021/05/01 04:50:23;;;;;;;24.27;12.95;;;7.10;89.20;;;;;;4956486;28;20027;-75
2021/05/01 04:52:49;;;;;;;25.63;12.65;;;7.10;89.20;;;;;;4958900;28;20027;-75
2021/05/01 04:55:15;;;;;;;22.60;12.55;;;7.10;89.20;;;;;;4963114;28;20085;-75
2021/05/01 04:57:49;;;;;;;25.65;14.27;;;7.10;89.10;;;;;;4962477;28;20027;-75
2021/05/01 05:00:17;;;;;;;26.58;13.93;;;7.10;88.80;;;;;;4959171;28;20035;-76
2021/05/01 05:02:43;;;;;;;24.42;13.45;;;7.20;89.00;;;;;;4959320;28;20060;-75
2021/05/01 05:05:10;;;;;;;27.88;14.35;;;7.10;89.10;;;;;;4973676;28;20039;-75
2021/05/01 05:07:36;;;;;;;30.25;15.95;;;7.10;89.20;;;;;;4956422;28;20027;-76
2021/05/01 05:10:02;;;;;;;29.08;14.35;;;7.10;89.50;;;;;;4960840;28;20097;-75
2021/05/01 05:12:28;;;;;;;29.10;14.93;;;7.10;90.10;;;;;;4971005;28;20186;-75
2021/05/01 05:14:53;;;;;;;29.80;16.45;;;7.10;90.10;;;;;;4963364;28;20553;-75
2021/05/01 05:17:19;;;;;;;31.75;15.40;;;7.00;90.00;;;;;;4962874;28;20040;-75
2021/05/01 05:19:46;;;;;;;30.67;15.57;;;6.90;90.10;;;;;;4960072;28;20026;-75
2021/05/01 05:22:12;;;;;;;32.65;14.73;;;6.90;90.20;;;;;;4958244;28;20517;-75
2021/05/01 05:24:38;;;;;;;29.35;14.45;;;6.80;90.00;;;;;;4958402;28;20054;-75
2021/05/01 05:27:05;;;;;;;30.27;14.60;;;6.80;90.10;;;;;;4976434;28;20057;-75
2021/05/01 05:29:32;;;;;;;33.35;15.75;;;6.80;90.10;;;;;;4961116;28;20482;-75
2021/05/01 05:31:58;;;;;;;34.70;16.23;;;6.80;90.50;;;;;;4972154;28;20088;-75
2021/05/01 05:34:23;;;;;;;28.80;14.02;;;6.70;90.20;;;;;;4961583;28;20031;-75
2021/05/01 05:36:49;;;;;;;33.28;15.13;;;6.70;90.30;;;;;;4974091;28;20039;-76
2021/05/01 05:39:15;;;;;;;30.77;14.23;;;6.70;90.40;;;;;;4956028;28;20134;-75
2021/05/01 05:41:42;;;;;;;34.38;15.98;;;6.80;90.30;;;;;;4955775;28;20490;-75
2021/05/01 05:44:08;;;;;;;29.55;15.77;;;6.70;90.20;;;;;;4959829;28;20117;-76
2021/05/01 05:46:34;;;;;;;31.35;14.85;;;6.80;90.30;;;;;;4959799;28;20070;-76
2021/05/01 05:49:00;;;;;;;32.05;15.35;;;6.80;90.50;;;;;;4956608;28;20502;-75
2021/05/01 05:51:26;;;;;;;31.70;15.45;;;6.80;90.40;;;;;;4961234;28;20019;-76
2021/05/01 05:53:51;;;;;;;33.72;15.05;;;6.80;90.60;;;;;;4957877;28;20549;-76
2021/05/01 05:56:17;;;;;;;35.58;16.98;;;6.80;90.70;;;;;;4960021;28;20177;-76
2021/05/01 05:58:42;;;;;;;34.75;16.55;;;6.90;90.30;;;;;;4960067;28;20031;-75
2021/05/01 06:01:10;;;;;;;35.38;16.30;;;6.90;90.80;;;;;;4957015;28;20105;-75
2021/05/01 06:03:37;;;;;;;32.97;15.43;;;6.90;90.50;;;;;;4960736;28;20035;-76
2021/05/01 06:06:06;;;;;;;31.63;14.00;;;6.90;90.00;;;;;;4958770;28;20061;-75
2021/05/01 06:08:33;;;;;;;32.10;15.50;;;6.90;90.50;;;;;;4959265;28;20046;-76
2021/05/01 06:11:01;;;;;;;30.50;15.48;;;6.90;90.30;;;;;;4957385;28;20038;-75
2021/05/01 06:13:31;;;;;;;31.98;14.60;;;7.00;90.40;;;;;;4960219;28;20513;-76
2021/05/01 06:15:58;;;;;;;29.00;14.38;;;7.00;90.70;;;;;;4957187;28;20051;-75
2021/05/01 06:18:26;;;;;;;32.72;14.82;;;7.00;90.30;;;;;;4963570;28;20038;-76
2021/05/01 06:20:52;;;;;;;34.00;15.67;;;7.10;90.60;;;;;;4961609;28;20493;-75
2021/05/01 06:23:19;;;;;;;31.00;14.65;;;7.10;90.40;;;;;;4957604;28;20023;-75
2021/05/01 06:25:48;;;;;;;32.28;14.48;;;7.10;90.40;;;;;;4963277;28;20062;-76
2021/05/01 06:28:14;;;;;;;35.55;15.23;;;7.20;90.90;;;;;;4960492;28;20145;-76
2021/05/01 06:30:42;;;;;;;35.33;16.48;;;7.10;90.40;;;;;;4975441;28;20448;-75
2021/05/01 06:33:12;;;;;;;39.65;16.55;;;7.20;90.60;;;;;;4956085;28;20494;-76
2021/05/01 06:35:40;;;;;;;39.85;17.88;;;7.20;90.80;;;;;;4961169;28;20023;-75
2021/05/01 06:38:07;;;;;;;38.58;16.33;;;7.20;90.80;;;;;;4959145;28;20182;-75
2021/05/01 06:40:37;;;;;;;36.10;16.40;;;7.20;90.80;;;;;;4961350;28;20077;-76
2021/05/01 06:43:14;;;;;;;33.00;15.90;;;7.30;91.10;;;;;;4960725;28;20019;-75
2021/05/01 06:45:42;;;;;;;38.40;18.00;;;7.30;90.80;;;;;;4958492;28;20491;-76
2021/05/01 06:48:23;;;;;;;35.65;16.67;;;7.30;90.60;;;;;;4954318;28;20446;-76
2021/05/01 06:50:49;;;;;;;33.10;16.80;;;7.30;90.70;;;;;;4954529;28;20097;-75
2021/05/01 06:53:29;;;;;;;31.67;15.82;;;7.30;90.60;;;;;;4953383;28;20154;-75
2021/05/01 06:55:56;;;;;;;37.90;18.38;;;7.30;90.70;;;;;;4950635;28;20062;-75
2021/05/01 06:58:23;;;;;;;35.78;18.33;;;7.40;90.80;;;;;;4955592;28;22502;-74
2021/05/01 07:00:50;;;;;;;37.42;17.60;;;7.40;90.60;;;;;;4964457;28;20147;-75
2021/05/01 07:03:17;;;;;;;34.08;16.25;;;7.40;90.50;;;;;;4958328;28;20039;-75
2021/05/01 07:05:48;;;;;;;37.30;16.33;;;7.40;90.20;;;;;;4961148;28;20425;-74
2021/05/01 07:08:14;;;;;;;36.42;16.20;;;7.50;90.60;;;;;;4956825;28;20038;-75
2021/05/01 07:10:40;;;;;;;37.42;17.02;;;7.50;90.60;;;;;;4958525;28;20035;-74
2021/05/01 07:13:05;;;;;;;33.88;15.32;;;7.50;90.40;;;;;;4964048;28;20448;-75
2021/05/01 07:15:31;;;;;;;34.83;15.23;;;7.60;90.40;;;;;;4960512;28;20027;-74
2021/05/01 07:17:57;;;;;;;33.63;15.60;;;7.60;89.90;;;;;;4965240;28;20102;-75
2021/05/01 07:20:23;;;;;;;36.95;17.15;;;7.60;90.10;;;;;;4966826;28;20030;-75
2021/05/01 07:22:51;;;;;;;33.28;15.10;;;7.60;90.20;;;;;;4970413;28;20041;-75
2021/05/01 07:25:16;;;;;;;35.90;17.88;;;7.60;90.10;;;;;;4969080;28;20053;-74
2021/05/01 07:28:00;;;;;;;38.88;17.65;;;7.60;90.40;;;;;;4960980;28;20063;-75
2021/05/01 07:30:28;;;;;;;35.13;16.58;;;7.70;90.40;;;;;;4964821;28;20027;-75
2021/05/01 07:33:21;;;;;;;40.40;17.67;;;7.70;90.00;;;;;;4959439;28;20023;-75
2021/05/01 07:35:50;;;;;;;32.92;17.55;;;7.70;90.00;;;;;;4960834;28;20125;-75
2021/05/01 07:38:16;;;;;;;32.58;16.02;;;7.70;90.00;;;;;;4969243;28;20102;-76
2021/05/01 07:40:43;;;;;;;36.75;16.48;;;7.70;90.10;;;;;;4974167;28;20026;-75
2021/05/01 07:43:15;;;;;;;32.78;16.15;;;7.70;90.10;;;;;;4967154;28;20042;-74
2021/05/01 07:45:41;;;;;;;32.50;15.43;;;7.70;89.90;;;;;;4958507;28;20027;-75
2021/05/01 07:48:10;;;;;;;34.25;16.10;;;7.70;89.80;;;;;;4946655;28;21419;-76
2021/05/01 07:50:36;;;;;;;30.33;15.50;;;7.70;90.10;;;;;;4938189;28;21315;-75
2021/05/01 07:53:02;;;;;;;31.40;15.82;;;7.70;90.00;;;;;;4945565;28;20060;-75
2021/05/01 07:55:29;;;;;;;33.95;15.63;;;7.80;90.00;;;;;;4943688;28;20027;-76
2021/05/01 07:57:54;;;;;;;38.08;17.83;;;7.70;89.60;;;;;;4939981;28;20027;-75
2021/05/01 08:00:20;;;;;;;28.48;14.07;;;7.80;89.90;;;;;;4953993;28;20568;-75
2021/05/01 08:02:47;;;;;;;32.72;15.85;;;7.80;89.80;;;;;;4940823;28;20026;-75
2021/05/01 08:05:14;;;;;;;35.65;16.15;;;7.90;90.20;;;;;;4945646;28;20050;-76
2021/05/01 08:07:40;;;;;;;32.47;14.63;;;8.00;90.30;;;;;;4942528;28;20618;-75
2021/05/01 08:10:07;;;;;;;33.42;15.98;;;8.10;90.00;;;;;;4940596;28;20038;-75
2021/05/01 08:12:33;;;;;;;30.48;14.90;;;8.30;90.30;;;;;;4942495;28;20074;-75
2021/05/01 08:14:59;;;;;;;32.65;15.82;;;8.30;89.20;;;;;;4947263;28;20139;-75
2021/05/01 08:17:24;;;;;;;30.88;14.07;;;8.50;89.90;;;;;;4937730;28;21119;-75
2021/05/01 08:19:53;;;;;;;29.85;15.00;;;8.60;89.00;;;;;;4942452;28;20633;-75
2021/05/01 08:22:19;;;;;;;30.40;14.55;;;8.60;90.30;;;;;;4958341;28;20336;-76
2021/05/01 08:24:45;;;;;;;27.65;14.27;;;8.70;90.00;;;;;;4955775;28;20026;-75
2021/05/01 08:27:10;;;;;;;30.30;15.02;;;8.80;89.70;;;;;;4956465;28;20059;-75
2021/05/01 08:29:36;;;;;;;25.45;13.23;;;8.90;87.90;;;;;;4961873;28;20034;-75
2021/05/01 08:32:02;;;;;;;29.85;14.35;;;8.90;85.80;;;;;;4958957;28;20055;-76
2021/05/01 08:34:27;;;;;;;30.20;14.10;;;8.90;87.30;;;;;;4954843;28;20488;-75
2021/05/01 08:36:53;;;;;;;25.80;12.75;;;8.90;87.70;;;;;;4961258;28;20027;-77
2021/05/01 08:39:19;;;;;;;28.05;13.75;;;9.00;88.20;;;;;;4962525;28;20074;-77
2021/05/01 08:41:44;;;;;;;24.17;13.43;;;9.00;86.90;;;;;;4960451;28;20045;-76
2021/05/01 08:44:11;;;;;;;23.15;11.95;;;9.00;87.10;;;;;;4964332;28;20038;-76
2021/05/01 08:46:37;;;;;;;23.33;12.77;;;8.90;85.60;;;;;;4964414;28;20428;-76
2021/05/01 08:49:05;;;;;;;25.55;13.75;;;8.90;86.90;;;;;;4957858;28;20386;-76
2021/05/01 08:51:31;;;;;;;26.15;13.73;;;8.90;86.10;;;;;;4960026;28;20023;-75
2021/05/01 08:53:56;;;;;;;26.23;13.50;;;9.10;86.20;;;;;;4959858;28;20054;-76
2021/05/01 08:56:22;;;;;;;28.90;13.55;;;9.10;86.80;;;;;;4961525;28;20031;-75
2021/05/01 08:58:48;;;;;;;24.50;12.48;;;9.10;86.60;;;;;;4955970;28;20070;-76
2021/05/01 09:01:17;;;;;;;24.65;12.05;;;9.10;86.60;;;;;;4954473;28;20031;-75
2021/05/01 09:03:43;;;;;;;24.40;12.60;;;9.10;85.80;;;;;;4959992;28;20437;-76
2021/05/01 09:06:09;;;;;;;24.38;12.93;;;9.10;85.70;;;;;;4956763;28;20125;-75
2021/05/01 09:08:40;;;;;;;24.50;12.20;;;9.20;87.10;;;;;;4952760;28;20045;-76
2021/05/01 09:11:06;;;;;;;23.25;12.73;;;9.20;85.20;;;;;;4958601;28;20033;-76
2021/05/01 09:13:32;;;;;;;23.42;12.23;;;9.20;86.20;;;;;;4951152;28;20027;-76
2021/05/01 09:16:05;;;;;;;21.35;11.98;;;9.30;87.00;;;;;;4949714;28;20046;-76
2021/05/01 09:18:54;;;;;;;20.08;10.93;;;9.20;84.80;;;;;;4959046;28;20053;-76
2021/05/01 09:21:23;;;;;;;22.67;12.77;;;9.30;84.60;;;;;;4956471;28;20517;-76
2021/05/01 09:23:50;;;;;;;24.65;12.52;;;9.30;85.10;;;;;;4955904;28;20039;-76
2021/05/01 09:26:21;;;;;;;24.85;13.13;;;9.30;84.90;;;;;;4957953;28;20098;-76
2021/05/01 09:28:50;;;;;;;23.42;12.05;;;9.30;85.10;;;;;;4960160;28;20102;-76
2021/05/01 09:31:18;;;;;;;19.30;11.30;;;9.30;85.00;;;;;;4958179;28;20031;-75
2021/05/01 09:33:51;;;;;;;22.02;12.02;;;9.30;84.50;;;;;;4955018;28;20418;-76
2021/05/01 09:36:22;;;;;;;19.02;10.50;;;9.40;85.30;;;;;;4969755;28;20101;-75
2021/05/01 09:39:07;;;;;;;20.17;11.00;;;9.50;85.60;;;;;;4959965;28;20106;-75
2021/05/01 09:41:35;;;;;;;22.55;12.65;;;9.60;85.30;;;;;;4960885;28;20091;-77
2021/05/01 09:44:02;;;;;;;22.15;11.55;;;9.60;85.20;;;;;;4962980;28;20031;-75
2021/05/01 09:46:47;;;;;;;25.33;13.07;;;9.50;85.40;;;;;;4962511;28;20070;-75
2021/05/01 09:49:24;;;;;;;21.48;11.50;;;9.40;85.50;;;;;;4961476;28;20036;-76
2021/05/01 09:52:06;;;;;;;19.65;11.00;;;9.40;85.50;;;;;;4958045;28;20472;-76
2021/05/01 09:54:34;;;;;;;22.33;11.93;;;9.40;85.20;;;;;;4975151;28;20441;-75
2021/05/01 09:57:05;;;;;;;22.02;11.50;;;9.40;85.20;;;;;;4960746;28;20031;-76
2021/05/01 09:59:43;;;;;;;19.88;11.55;;;9.40;84.50;;;;;;4960097;28;20536;-75
2021/05/01 10:02:14;;;;;;;19.75;10.55;;;9.50;84.80;;;;;;4951485;28;20050;-76
2021/05/01 10:04:42;;;;;;;23.27;11.48;;;9.50;84.00;;;;;;4958305;28;20035;-75
2021/05/01 10:07:12;;;;;;;20.55;11.07;;;9.50;85.80;;;;;;4961995;28;20088;-76
2021/05/01 10:09:42;;;;;;;20.33;10.93;;;9.50;84.90;;;;;;4962777;28;20073;-76
2021/05/01 10:12:08;;;;;;;19.73;10.73;;;9.50;84.50;;;;;;4960309;28;20058;-76
2021/05/01 10:14:42;;;;;;;18.70;10.80;;;9.50;84.90;;;;;;4959552;28;20117;-76
2021/05/01 10:17:11;;;;;;;22.13;11.82;;;9.50;84.50;;;;;;4961640;28;20027;-75
2021/05/01 10:19:46;;;;;;;22.30;11.80;;;9.50;85.00;;;;;;4961408;28;21237;-74
2021/05/01 10:22:41;;;;;;;19.40;10.57;;;9.50;85.30;;;;;;4963122;28;20050;-75
2021/05/01 10:25:13;;;;;;;21.83;11.43;;;9.50;84.90;;;;;;4960115;28;20406;-75
2021/05/01 10:27:50;;;;;;;22.17;12.38;;;9.50;84.30;;;;;;4970679;28;20050;-75
2021/05/01 10:35:38;;;;;;;21.17;11.85;;;9.70;86.10;;;;;;4965547;28;20023;-76
2021/05/01 10:38:07;;;;;;;20.92;11.82;;;9.70;85.50;;;;;;4964078;28;20027;-75
2021/05/01 10:40:42;;;;;;;22.27;11.52;;;9.60;84.20;;;;;;4958100;28;20042;-75
2021/05/01 10:43:13;;;;;;;27.70;12.88;;;9.70;85.10;;;;;;4963679;28;20113;-75
2021/05/01 10:45:46;;;;;;;19.73;10.75;;;9.70;83.70;;;;;;4963690;28;20030;-75
2021/05/01 10:48:11;;;;;;;23.35;12.38;;;9.70;84.60;;;;;;4962307;28;20039;-75
2021/05/01 10:50:39;;;;;;;21.73;11.27;;;9.70;84.10;;;;;;4968731;28;20023;-75
2021/05/01 10:53:16;;;;;;;24.42;12.93;;;9.80;85.00;;;;;;4958993;28;20034;-76
2021/05/01 10:55:54;;;;;;;24.27;13.07;;;9.90;84.60;;;;;;4970992;28;20118;-75
2021/05/01 10:58:36;;;;;;;24.63;12.07;;;9.90;84.60;;;;;;4954558;28;20137;-75
2021/05/01 11:01:04;;;;;;;21.83;11.55;;;10.10;85.00;;;;;;4963368;28;20130;-75
2021/05/01 11:03:30;;;;;;;22.45;11.98;;;10.10;84.60;;;;;;4962496;28;20113;-75
2021/05/01 11:06:00;;;;;;;20.85;11.27;;;10.10;84.10;;;;;;4961166;28;20031;-75
2021/05/01 11:08:40;;;;;;;23.50;11.90;;;10.20;83.40;;;;;;4966052;28;20577;-76
2021/05/01 11:11:11;;;;;;;21.58;11.55;;;10.20;83.10;;;;;;4956218;28;20093;-75
2021/05/01 11:13:40;;;;;;;25.77;11.88;;;10.20;83.00;;;;;;4984360;28;20019;-75
2021/05/01 11:16:08;;;;;;;20.95;11.13;;;10.20;82.50;;;;;;4970603;28;20023;-75
2021/05/01 11:18:36;;;;;;;24.85;12.70;;;10.20;82.20;;;;;;4959061;28;20062;-75
2021/05/01 11:21:09;;;;;;;23.77;11.70;;;10.20;84.60;;;;;;4973345;28;20147;-76
2021/05/01 11:23:36;;;;;;;25.52;12.93;;;10.10;82.90;;;;;;4967543;28;20097;-75
2021/05/01 11:26:06;;;;;;;23.15;12.60;;;10.10;83.10;;;;;;4963070;28;20725;-75
2021/05/01 11:28:33;;;;;;;23.60;12.38;;;10.30;83.60;;;;;;4965037;28;21642;-74
2021/05/01 11:30:59;;;;;;;24.50;12.23;;;10.30;81.90;;;;;;4966353;28;20080;-75
2021/05/01 11:33:27;;;;;;;24.17;12.85;;;10.30;82.80;;;;;;4964502;28;20461;-75
2021/05/01 11:35:53;;;;;;;23.70;12.47;;;10.40;83.30;;;;;;4971392;28;20023;-75
2021/05/01 11:38:42;;;;;;;20.35;11.48;;;10.40;81.80;;;;;;4965600;28;20286;-75
2021/05/01 11:41:12;;;;;;;22.33;11.50;;;10.50;81.60;;;;;;4959236;28;20420;-75
2021/05/01 11:43:40;;;;;;;23.27;11.52;;;10.50;80.90;;;;;;4960511;28;20401;-75
2021/05/01 11:46:18;;;;;;;23.65;12.07;;;10.60;81.70;;;;;;4971278;28;20114;-76
2021/05/01 11:48:46;;;;;;;20.63;11.60;;;10.60;81.70;;;;;;4968433;28;20039;-75
2021/05/01 11:51:17;;;;;;;22.02;11.65;;;10.50;81.00;;;;;;4970616;28;20594;-75
2021/05/01 11:53:48;;;;;;;19.42;10.68;;;10.50;81.10;;;;;;4970226;28;20376;-75
2021/05/01 11:56:58;;;;;;;19.10;10.90;;;10.60;81.20;;;;;;4963676;28;20019;-74
2021/05/01 11:59:26;;;;;;;22.75;11.63;;;10.60;81.50;;;;;;4949016;28;20039;-75
2021/05/01 12:02:03;;;;;;;18.05;10.65;;;10.60;80.30;;;;;;4953700;28;20422;-74
2021/05/01 12:05:07;;;;;;;21.45;12.27;;;10.60;80.70;;;;;;4965599;28;20391;-74
2021/05/01 12:07:55;;;;;;;23.75;12.18;;;10.60;80.70;;;;;;4950635;28;20035;-74
2021/05/01 12:10:22;;;;;;;20.75;11.93;;;10.70;80.10;;;;;;4953492;28;20516;-74
2021/05/01 12:13:09;;;;;;;20.10;11.37;;;10.70;80.80;;;;;;4958390;28;20706;-74
2021/05/01 12:15:38;;;;;;;24.27;12.40;;;10.70;81.30;;;;;;4961669;28;20856;-75
2021/05/01 12:18:04;;;;;;;;;;;10.70;81.60;;;;;;4972515;28;20167;-75
2021/05/01 12:20:33;;;;;;;19.92;10.98;;;10.70;79.60;;;;;;4970893;28;20285;-74
2021/05/01 12:23:05;;;;;;;21.15;10.90;;;10.70;79.30;;;;;;4968568;28;20134;-74
2021/05/01 12:25:38;;;;;;;18.92;11.48;;;10.70;79.30;;;;;;4970012;28;20058;-74
2021/05/01 12:28:06;;;;;;;19.90;12.60;;;10.70;79.60;;;;;;4957223;28;20034;-74
2021/05/01 12:30:52;;;;;;;19.50;11.18;;;10.70;78.90;;;;;;4968030;28;20077;-75
2021/05/01 12:33:32;;;;;;;17.77;9.88;;;10.80;79.20;;;;;;4973074;28;20066;-74
2021/05/01 12:36:07;;;;;;;22.38;12.02;;;10.80;79.00;;;;;;4966922;28;20038;-76
2021/05/01 12:38:41;;;;;;;17.67;11.35;;;10.90;80.00;;;;;;4962513;28;20015;-75
2021/05/01 12:41:07;;;;;;;17.17;10.32;;;11.00;80.50;;;;;;4973491;28;20026;-74
2021/05/01 12:43:32;;;;;;;20.35;10.85;;;11.10;78.70;;;;;;4963288;28;20019;-74
2021/05/01 12:46:12;;;;;;;21.17;11.48;;;11.10;79.00;;;;;;4961554;28;20027;-75
2021/05/01 12:48:47;;;;;;;20.77;11.15;;;11.10;79.50;;;;;;4956047;28;20027;-75